Time;durP1;ratioP1;P1;durP2;ratioP2;P2;SDS_P1;SDS_P2;PMS_P1;PMS_P2;Temp;Humidity;BMP_temperature;BMP_pressure;BME280_temperature;BME280_humidity;BME280_pressure;Samples;Min_cycle;Max_cycle;Signal;HPM_P1;HPM_P2
2022/10/11 00:00:23;;;;;;;12.52;2.85;;;10.30;99.90;;;;;;4990141;28;20069;-75
2022/10/11 00:02:49;;;;;;;12.15;2.50;;;10.30;99.90;;;;;;4994682;28;20048;-75
2022/10/11 00:05:16;;;;;;;10.10;1.95;;;10.30;99.90;;;;;;4993297;28;20033;-76
2022/10/11 00:07:41;;;;;;;15.15;2.30;;;10.20;99.90;;;;;;4992858;28;20030;-76
2022/10/11 00:10:08;;;;;;;12.63;2.10;;;10.30;99.90;;;;;;4996238;28;20030;-76
2022/10/11 00:12:34;;;;;;;12.60;2.38;;;10.20;99.90;;;;;;4993879;28;20026;-76
2022/10/11 00:15:00;;;;;;;8.10;1.88;;;10.20;99.90;;;;;;4976186;28;20057;-76
2022/10/11 00:17:25;;;;;;;12.57;2.75;;;10.20;99.90;;;;;;4976635;28;20027;-76
2022/10/11 00:19:51;;;;;;;13.20;2.53;;;10.20;99.90;;;;;;4992988;28;20026;-76
2022/10/11 00:22:17;;;;;;;17.25;2.40;;;10.20;99.90;;;;;;5009252;28;20058;-76
2022/10/11 00:24:42;;;;;;;10.07;2.58;;;10.10;99.90;;;;;;4992078;28;20039;-76
2022/10/11 00:27:08;;;;;;;13.85;2.78;;;10.10;99.90;;;;;;4990726;28;20034;-76
2022/10/11 00:29:35;;;;;;;19.17;2.80;;;10.10;99.90;;;;;;4976101;28;20033;-76
2022/10/11 00:32:01;;;;;;;8.80;1.90;;;10.00;99.90;;;;;;4992357;28;20383;-76
2022/10/11 00:34:27;;;;;;;10.18;2.45;;;10.00;99.90;;;;;;4993522;28;20030;-76
2022/10/11 00:36:52;;;;;;;11.70;2.25;;;10.00;99.90;;;;;;4993652;28;20117;-76
2022/10/11 00:39:18;;;;;;;14.82;2.72;;;10.00;99.90;;;;;;5005700;28;20026;-76
2022/10/11 00:41:44;;;;;;;9.38;2.08;;;10.00;99.90;;;;;;4991805;28;20049;-76
2022/10/11 00:44:21;;;;;;;15.98;3.70;;;10.00;99.90;;;;;;4992034;28;20026;-76
2022/10/11 00:47:00;;;;;;;12.05;2.17;;;10.00;99.90;;;;;;4975972;28;20124;-76
2022/10/11 00:49:34;;;;;;;13.05;2.78;;;10.00;99.90;;;;;;4990447;28;20034;-76
2022/10/11 00:52:05;;;;;;;14.77;2.35;;;9.90;99.90;;;;;;5002400;28;20027;-76
2022/10/11 00:54:34;;;;;;;9.75;2.50;;;9.90;99.90;;;;;;4975776;28;20034;-77
2022/10/11 00:57:04;;;;;;;15.95;2.75;;;10.00;99.90;;;;;;4992781;28;20053;-76
2022/10/11 00:59:40;;;;;;;13.75;3.20;;;10.00;99.90;;;;;;4995177;28;20089;-75
2022/10/11 01:02:07;;;;;;;10.65;2.50;;;10.00;99.90;;;;;;5003422;28;20140;-76
2022/10/11 01:04:33;;;;;;;22.35;2.20;;;10.10;99.90;;;;;;4991830;28;20269;-76
2022/10/11 01:07:00;;;;;;;10.68;2.70;;;10.00;99.90;;;;;;4990920;28;20037;-76
2022/10/11 01:09:26;;;;;;;11.93;2.30;;;10.10;99.90;;;;;;4991690;28;20494;-76
2022/10/11 01:11:54;;;;;;;13.13;2.28;;;10.00;99.90;;;;;;4991552;28;20049;-76
2022/10/11 01:14:38;;;;;;;15.73;2.33;;;10.00;99.90;;;;;;4993727;28;20030;-76
2022/10/11 01:17:17;;;;;;;11.88;1.98;;;10.00;99.90;;;;;;4990060;28;20503;-76
2022/10/11 01:20:21;;;;;;;9.48;2.15;;;10.00;99.90;;;;;;4974225;28;20050;-76
2022/10/11 01:23:25;;;;;;;8.23;2.42;;;10.00;99.90;;;;;;4991879;28;20026;-76
2022/10/11 01:26:18;;;;;;;9.75;2.30;;;9.90;99.90;;;;;;5005808;28;20026;-76
2022/10/11 01:29:10;;;;;;;10.20;1.85;;;9.90;99.90;;;;;;4992153;28;20072;-76
2022/10/11 01:31:55;;;;;;;9.27;2.10;;;9.90;99.90;;;;;;5001167;28;20125;-76
2022/10/11 01:34:45;;;;;;;10.60;2.33;;;9.90;99.90;;;;;;4990911;28;20066;-76
2022/10/11 01:37:13;;;;;;;9.33;2.00;;;9.90;99.90;;;;;;4975648;28;20126;-76
2022/10/11 01:39:55;;;;;;;18.25;2.60;;;9.80;99.90;;;;;;4991126;28;20518;-76
2022/10/11 01:42:22;;;;;;;11.20;2.28;;;9.80;99.90;;;;;;4997708;28;20041;-76
2022/10/11 01:44:50;;;;;;;10.23;2.30;;;9.80;99.90;;;;;;4974830;28;20054;-76
2022/10/11 01:47:20;;;;;;;12.35;2.65;;;9.80;99.90;;;;;;4991468;28;20033;-76
2022/10/11 01:49:56;;;;;;;16.08;2.72;;;9.70;99.90;;;;;;4990965;28;20049;-77
2022/10/11 01:52:24;;;;;;;9.70;2.13;;;9.70;99.90;;;;;;4991590;28;20102;-77
2022/10/11 01:55:15;;;;;;;11.65;2.50;;;9.70;99.90;;;;;;4992368;28;20030;-77
2022/10/11 01:57:56;;;;;;;12.48;2.53;;;9.70;99.90;;;;;;4988547;28;20038;-76
2022/10/11 02:00:25;;;;;;;13.45;3.08;;;9.60;99.90;;;;;;5000187;28;20089;-76
2022/10/11 02:03:10;;;;;;;8.52;2.42;;;9.60;99.90;;;;;;4991745;28;20074;-76
2022/10/11 02:05:50;;;;;;;12.23;2.38;;;9.60;99.90;;;;;;4989721;28;20114;-76
2022/10/11 02:08:44;;;;;;;16.98;2.60;;;9.60;99.90;;;;;;5007808;28;20026;-76
2022/10/11 02:11:32;;;;;;;12.75;2.58;;;9.60;99.90;;;;;;4973222;28;20433;-77
2022/10/11 02:14:08;;;;;;;13.68;1.90;;;9.50;99.90;;;;;;4991588;28;20033;-76
2022/10/11 02:16:43;;;;;;;10.88;2.15;;;9.50;99.90;;;;;;4992007;28;20022;-77
2022/10/11 02:19:14;;;;;;;19.08;3.28;;;9.50;99.90;;;;;;4991923;28;20023;-78
2022/10/11 02:21:44;;;;;;;19.50;2.97;;;9.50;99.90;;;;;;4990767;28;20030;-76
2022/10/11 02:24:18;;;;;;;10.18;2.15;;;9.50;99.90;;;;;;4988658;28;20034;-77
2022/10/11 02:26:51;;;;;;;8.98;2.20;;;9.50;99.90;;;;;;4987803;28;20280;-77
2022/10/11 02:29:19;;;;;;;13.73;2.75;;;9.50;99.90;;;;;;4991521;28;20032;-77
2022/10/11 02:31:45;;;;;;;7.00;1.80;;;9.60;99.90;;;;;;4991383;28;20114;-77
2022/10/11 02:34:17;;;;;;;13.27;3.03;;;9.50;99.90;;;;;;4992785;28;20023;-77
2022/10/11 02:37:15;;;;;;;13.45;3.65;;;9.50;99.90;;;;;;4991337;28;20085;-77
2022/10/11 02:39:46;;;;;;;13.60;2.00;;;9.50;99.90;;;;;;4989045;28;20073;-76
2022/10/11 02:42:17;;;;;;;11.43;2.17;;;9.50;99.90;;;;;;4991565;28;20031;-78
2022/10/11 02:44:52;;;;;;;9.27;2.40;;;9.50;99.90;;;;;;4988424;28;20433;-77
2022/10/11 02:47:18;;;;;;;10.77;3.00;;;9.50;99.90;;;;;;4975514;28;20034;-77
2022/10/11 02:49:44;;;;;;;13.65;2.92;;;9.50;99.90;;;;;;4991988;28;20026;-76
2022/10/11 02:52:10;;;;;;;12.77;2.55;;;9.50;99.90;;;;;;4983542;28;20446;-77
2022/10/11 02:54:35;;;;;;;10.50;2.17;;;9.40;99.90;;;;;;4986033;28;20018;-75
2022/10/11 02:57:01;;;;;;;14.70;2.70;;;9.50;99.90;;;;;;4990971;28;20583;-76
2022/10/11 02:59:27;;;;;;;10.68;2.28;;;9.40;99.90;;;;;;4973722;28;20030;-75
2022/10/11 03:01:52;;;;;;;16.02;2.75;;;9.40;99.90;;;;;;4990840;28;20118;-76
2022/10/11 03:04:18;;;;;;;14.93;2.63;;;9.40;99.90;;;;;;4991589;28;20288;-76
2022/10/11 03:06:44;;;;;;;14.07;2.67;;;9.40;99.90;;;;;;4999156;28;20035;-76
2022/10/11 03:09:09;;;;;;;13.23;2.45;;;9.40;99.90;;;;;;4990098;28;20026;-77
2022/10/11 03:11:35;;;;;;;16.40;3.13;;;9.40;99.90;;;;;;4987922;28;20023;-76
2022/10/11 03:14:01;;;;;;;10.50;2.25;;;9.30;99.90;;;;;;4973445;28;20077;-76
2022/10/11 03:16:26;;;;;;;11.80;3.30;;;9.30;99.90;;;;;;4989807;28;20022;-76
2022/10/11 03:18:52;;;;;;;12.38;2.38;;;9.30;99.90;;;;;;4990326;28;20026;-77
2022/10/11 03:21:17;;;;;;;9.40;2.10;;;9.30;99.90;;;;;;4989991;28;20041;-76
2022/10/11 03:23:43;;;;;;;15.98;3.03;;;9.30;99.90;;;;;;4990324;28;20050;-76
2022/10/11 03:26:09;;;;;;;8.43;2.47;;;9.30;99.90;;;;;;4989493;28;20470;-76
2022/10/11 03:28:34;;;;;;;15.63;3.13;;;9.20;99.90;;;;;;4986519;28;20510;-76
2022/10/11 03:31:00;;;;;;;13.55;2.97;;;9.20;99.90;;;;;;4975824;28;20239;-77
2022/10/11 03:33:26;;;;;;;9.18;2.08;;;9.20;99.90;;;;;;4995489;28;20081;-76
2022/10/11 03:35:51;;;;;;;13.48;2.42;;;9.20;99.90;;;;;;4994068;28;20113;-76
2022/10/11 03:38:20;;;;;;;14.43;3.63;;;9.20;99.90;;;;;;4982762;28;20060;-76
2022/10/11 03:40:46;;;;;;;12.93;2.78;;;9.30;99.90;;;;;;4993221;28;20025;-76
2022/10/11 03:43:12;;;;;;;12.55;2.42;;;9.30;99.90;;;;;;4992977;28;20454;-74
2022/10/11 03:45:38;;;;;;;10.15;2.10;;;9.40;99.90;;;;;;4977898;28;20073;-76
2022/10/11 03:48:04;;;;;;;9.65;2.83;;;9.40;99.90;;;;;;4993401;28;20061;-75
2022/10/11 03:50:30;;;;;;;14.23;2.20;;;9.40;99.90;;;;;;4993125;28;20121;-75
2022/10/11 03:52:56;;;;;;;10.80;2.75;;;9.40;99.90;;;;;;4994328;28;20026;-75
2022/10/11 03:55:21;;;;;;;14.43;2.78;;;9.40;99.90;;;;;;4976385;28;20058;-77
2022/10/11 03:57:47;;;;;;;12.60;2.53;;;9.30;99.90;;;;;;5009365;28;20022;-76
2022/10/11 04:00:13;;;;;;;11.27;2.42;;;9.30;99.90;;;;;;4991180;28;20034;-78
2022/10/11 04:02:39;;;;;;;13.48;2.80;;;9.20;99.90;;;;;;4992583;28;20513;-77
2022/10/11 04:05:05;;;;;;;10.88;2.72;;;9.20;99.90;;;;;;5009582;28;20134;-76
2022/10/11 04:07:32;;;;;;;12.85;2.95;;;9.20;99.90;;;;;;4993054;28;20058;-77
2022/10/11 04:09:57;;;;;;;11.65;2.30;;;9.20;99.90;;;;;;4994502;28;20026;-73
2022/10/11 04:12:23;;;;;;;10.45;2.60;;;9.20;99.90;;;;;;4996659;28;20125;-74
2022/10/11 04:14:49;;;;;;;11.02;2.75;;;9.20;99.90;;;;;;5006837;28;20030;-77
2022/10/11 04:17:15;;;;;;;14.88;3.15;;;9.10;99.90;;;;;;4995165;28;20034;-75
2022/10/11 04:19:40;;;;;;;18.30;3.08;;;9.10;99.90;;;;;;5009345;28;20033;-75
2022/10/11 04:22:06;;;;;;;13.70;3.05;;;9.10;99.90;;;;;;4992906;28;20085;-76
2022/10/11 04:24:32;;;;;;;16.10;3.42;;;9.10;99.90;;;;;;4993840;28;20026;-75
2022/10/11 04:26:58;;;;;;;13.48;2.92;;;9.10;99.90;;;;;;4994013;28;20030;-77
2022/10/11 04:29:24;;;;;;;7.78;2.45;;;9.10;99.90;;;;;;4992516;28;20026;-75
2022/10/11 04:31:50;;;;;;;11.18;2.70;;;9.20;99.90;;;;;;4993102;28;20470;-76
2022/10/11 04:34:16;;;;;;;9.52;2.33;;;9.20;99.90;;;;;;4991281;28;20053;-75
2022/10/11 04:36:42;;;;;;;13.45;3.08;;;9.20;99.90;;;;;;4992727;28;20033;-77
2022/10/11 04:39:07;;;;;;;11.93;2.38;;;9.20;99.90;;;;;;4992319;28;20030;-76
2022/10/11 04:41:34;;;;;;;15.98;2.92;;;9.10;99.90;;;;;;4993290;28;20568;-75
2022/10/11 04:44:00;;;;;;;11.77;2.50;;;9.10;99.90;;;;;;4985066;28;20033;-75
2022/10/11 04:46:27;;;;;;;13.38;3.05;;;9.10;99.90;;;;;;4993508;28;20030;-75
2022/10/11 04:48:53;;;;;;;12.43;2.55;;;9.10;99.90;;;;;;4990791;28;20037;-77
2022/10/11 04:51:19;;;;;;;19.90;3.30;;;9.10;99.90;;;;;;4991900;28;20026;-75
2022/10/11 04:53:45;;;;;;;13.30;2.38;;;9.30;99.90;;;;;;4992641;28;20031;-75
2022/10/11 04:56:11;;;;;;;13.70;3.30;;;9.20;99.90;;;;;;4992097;28;20030;-75
2022/10/11 04:58:39;;;;;;;12.85;2.55;;;9.10;99.90;;;;;;5008508;28;20028;-75
2022/10/11 05:01:08;;;;;;;12.52;2.45;;;9.10;99.90;;;;;;4992456;28;20533;-75
2022/10/11 05:03:34;;;;;;;12.30;3.22;;;9.00;99.90;;;;;;4993893;28;20027;-75
2022/10/11 05:06:00;;;;;;;15.30;3.53;;;9.00;99.90;;;;;;4977475;28;20037;-75
2022/10/11 05:08:26;;;;;;;17.83;2.88;;;9.00;99.90;;;;;;4993372;28;20092;-75
2022/10/11 05:10:56;;;;;;;10.70;2.35;;;9.00;99.90;;;;;;4993204;28;20453;-76
2022/10/11 05:13:22;;;;;;;14.20;3.13;;;8.90;99.90;;;;;;4991627;28;20018;-76
2022/10/11 05:15:48;;;;;;;13.93;3.05;;;8.90;99.90;;;;;;4991898;28;20093;-75
2022/10/11 05:18:13;;;;;;;13.80;3.75;;;8.90;99.90;;;;;;4976118;28;20117;-76
2022/10/11 05:20:39;;;;;;;10.48;2.65;;;8.90;99.90;;;;;;5005072;28;20061;-75
2022/10/11 05:23:05;;;;;;;13.05;2.88;;;8.90;99.90;;;;;;4991917;28;20022;-75
2022/10/11 05:25:31;;;;;;;13.77;3.00;;;8.80;99.90;;;;;;4992141;28;20092;-75
2022/10/11 05:27:56;;;;;;;13.35;3.05;;;8.90;99.90;;;;;;4992141;28;20030;-75
2022/10/11 05:30:22;;;;;;;12.52;2.55;;;8.80;99.90;;;;;;4993334;28;20053;-75
2022/10/11 05:32:48;;;;;;;12.05;2.50;;;8.80;99.90;;;;;;5007060;28;20560;-75
2022/10/11 05:35:13;;;;;;;12.88;2.85;;;8.80;99.90;;;;;;4992125;28;20022;-75
2022/10/11 05:37:39;;;;;;;12.90;2.50;;;8.80;99.90;;;;;;4991723;28;20706;-75
2022/10/11 05:40:06;;;;;;;16.73;3.20;;;8.80;99.90;;;;;;4990361;28;20054;-75
2022/10/11 05:42:32;;;;;;;12.60;3.17;;;8.80;99.90;;;;;;4974324;28;20041;-74
2022/10/11 05:44:57;;;;;;;9.82;2.92;;;8.80;99.90;;;;;;4989079;28;20026;-76
2022/10/11 05:47:23;;;;;;;11.43;2.83;;;8.80;99.90;;;;;;5007853;28;20030;-75
2022/10/11 05:49:48;;;;;;;10.40;2.78;;;8.80;99.90;;;;;;5007384;28;20026;-75
2022/10/11 05:52:18;;;;;;;14.80;2.83;;;8.80;99.90;;;;;;4974488;28;20034;-76
2022/10/11 05:54:44;;;;;;;11.63;2.70;;;8.80;99.90;;;;;;4989206;28;20030;-77
2022/10/11 05:57:10;;;;;;;17.27;3.58;;;8.80;99.90;;;;;;4992257;28;20498;-75
2022/10/11 05:59:36;;;;;;;12.57;2.88;;;8.80;99.90;;;;;;4994631;28;20058;-76
2022/10/11 06:02:01;;;;;;;12.68;3.08;;;8.80;99.90;;;;;;4976653;28;20065;-76
2022/10/11 06:04:27;;;;;;;12.93;2.85;;;8.80;99.90;;;;;;4992348;28;20092;-76
2022/10/11 06:06:52;;;;;;;12.00;2.38;;;8.80;99.90;;;;;;4992290;28;20030;-76
2022/10/11 06:09:18;;;;;;;12.45;2.50;;;8.90;99.90;;;;;;5004438;28;20072;-75
2022/10/11 06:11:44;;;;;;;18.50;2.72;;;8.90;99.90;;;;;;4989060;28;20027;-75
2022/10/11 06:14:10;;;;;;;9.48;2.40;;;9.30;99.90;;;;;;4991903;28;20024;-75
2022/10/11 06:16:36;;;;;;;10.50;2.88;;;9.20;99.90;;;;;;4990650;28;20029;-75
2022/10/11 06:19:03;;;;;;;15.77;2.95;;;9.20;99.90;;;;;;4991647;28;20069;-76
2022/10/11 06:21:29;;;;;;;13.65;3.38;;;9.20;99.90;;;;;;4992612;28;20022;-75
2022/10/11 06:23:54;;;;;;;13.02;3.03;;;9.20;99.90;;;;;;4992591;28;20384;-75
2022/10/11 06:26:20;;;;;;;14.25;3.75;;;9.20;99.90;;;;;;4989566;28;20041;-75
2022/10/11 06:28:46;;;;;;;15.85;4.22;;;9.20;99.90;;;;;;4990027;28;20437;-75
2022/10/11 06:31:12;;;;;;;13.25;3.58;;;9.20;99.90;;;;;;4990579;28;20030;-76
2022/10/11 06:33:38;;;;;;;11.70;2.85;;;9.20;99.90;;;;;;4991833;28;20037;-76
2022/10/11 06:36:10;;;;;;;12.63;3.13;;;9.20;99.90;;;;;;4998784;28;20410;-75
2022/10/11 06:38:36;;;;;;;14.35;3.08;;;9.20;99.90;;;;;;4991854;28;20034;-76
2022/10/11 06:41:17;;;;;;;15.25;2.30;;;9.10;99.90;;;;;;4973871;28;20410;-76
2022/10/11 06:43:43;;;;;;;11.25;2.55;;;9.10;99.90;;;;;;4990650;28;20045;-75
2022/10/11 06:46:09;;;;;;;10.70;2.83;;;9.10;99.90;;;;;;4987344;28;20124;-76
2022/10/11 06:48:39;;;;;;;12.15;2.58;;;9.10;99.90;;;;;;4974773;28;20089;-75
2022/10/11 06:51:05;;;;;;;13.38;2.50;;;9.10;99.90;;;;;;4991148;28;20458;-75
2022/10/11 06:53:30;;;;;;;10.65;2.72;;;9.20;99.90;;;;;;4993254;28;20054;-74
2022/10/11 06:56:09;;;;;;;8.23;2.05;;;9.20;99.90;;;;;;4995350;28;20375;-75
2022/10/11 06:58:35;;;;;;;10.57;2.38;;;9.20;99.90;;;;;;4987908;28;20034;-75
2022/10/11 07:01:02;;;;;;;6.78;1.92;;;9.30;99.90;;;;;;4973512;28;20026;-76
2022/10/11 07:03:28;;;;;;;13.77;2.53;;;9.30;99.90;;;;;;4990984;28;20037;-75
2022/10/11 07:05:59;;;;;;;9.68;2.70;;;9.30;99.90;;;;;;4991267;28;20367;-75
2022/10/11 07:08:25;;;;;;;12.25;2.47;;;9.30;99.90;;;;;;4990861;28;20023;-75
2022/10/11 07:10:51;;;;;;;12.52;2.78;;;9.30;99.90;;;;;;4990777;28;20034;-75
2022/10/11 07:13:16;;;;;;;11.70;2.95;;;9.40;99.90;;;;;;4991641;28;20058;-75
2022/10/11 07:15:42;;;;;;;16.85;2.75;;;9.40;99.90;;;;;;5006446;28;20093;-77
2022/10/11 07:18:08;;;;;;;9.93;2.53;;;9.40;99.90;;;;;;4972693;28;20548;-76
2022/10/11 07:20:34;;;;;;;15.88;2.88;;;9.40;99.90;;;;;;4989854;28;20019;-75
2022/10/11 07:23:00;;;;;;;12.20;2.92;;;9.40;99.90;;;;;;4990716;28;20033;-78
2022/10/11 07:25:26;;;;;;;14.65;2.90;;;9.40;99.90;;;;;;4973505;28;20490;-76
2022/10/11 07:27:51;;;;;;;11.45;2.45;;;9.50;99.90;;;;;;4973878;28;20054;-76
2022/10/11 07:30:17;;;;;;;6.90;2.42;;;9.50;99.90;;;;;;4989307;28;20034;-76
2022/10/11 07:32:43;;;;;;;10.73;3.30;;;9.50;99.90;;;;;;4990318;28;20037;-76
2022/10/11 07:35:08;;;;;;;15.73;2.78;;;9.50;99.90;;;;;;4972668;28;20134;-75
2022/10/11 07:37:34;;;;;;;14.02;2.58;;;9.60;99.90;;;;;;4973602;28;20046;-76
2022/10/11 07:40:00;;;;;;;16.65;2.78;;;9.50;99.90;;;;;;4973933;28;20022;-77
2022/10/11 07:42:25;;;;;;;15.70;3.92;;;9.60;99.90;;;;;;4991558;28;20085;-75
2022/10/11 07:44:51;;;;;;;15.45;3.63;;;9.60;99.90;;;;;;4990036;28;20030;-76
2022/10/11 07:47:17;;;;;;;16.17;3.05;;;9.60;99.90;;;;;;4990162;28;20037;-76
2022/10/11 07:49:42;;;;;;;12.95;3.17;;;9.70;99.90;;;;;;4991687;28;20486;-77
2022/10/11 07:52:08;;;;;;;11.60;2.38;;;9.60;99.90;;;;;;4997964;28;20398;-76
2022/10/11 07:54:34;;;;;;;7.50;2.30;;;9.70;99.90;;;;;;4989817;28;20026;-78
2022/10/11 07:56:59;;;;;;;14.07;2.50;;;9.70;99.90;;;;;;4990942;28;20023;-76
2022/10/11 07:59:25;;;;;;;11.88;3.22;;;9.80;99.90;;;;;;4989880;28;20505;-76
2022/10/11 08:01:51;;;;;;;12.40;2.50;;;9.80;99.90;;;;;;4989763;28;20030;-76
2022/10/11 08:04:16;;;;;;;9.88;2.10;;;9.80;99.90;;;;;;4989987;28;20038;-78
2022/10/11 08:06:42;;;;;;;9.25;2.15;;;9.80;99.90;;;;;;5001280;28;20042;-75
2022/10/11 08:09:09;;;;;;;8.02;2.75;;;9.90;99.90;;;;;;4988206;28;20022;-77
2022/10/11 08:11:36;;;;;;;15.43;3.33;;;9.90;99.90;;;;;;4977053;28;20100;-76
2022/10/11 08:14:07;;;;;;;14.80;3.15;;;9.90;99.90;;;;;;4991134;28;20074;-76
2022/10/11 08:16:37;;;;;;;13.38;3.03;;;9.90;99.90;;;;;;4992248;28;20018;-76
2022/10/11 08:19:03;;;;;;;12.40;2.38;;;9.90;99.90;;;;;;4977378;28;20449;-76
2022/10/11 08:21:29;;;;;;;10.82;2.85;;;9.90;99.90;;;;;;4993825;28;20026;-76
2022/10/11 08:23:55;;;;;;;11.18;2.35;;;10.00;99.90;;;;;;4992496;28;20039;-77
2022/10/11 08:26:21;;;;;;;6.20;2.10;;;10.00;99.90;;;;;;4995338;28;20041;-77
2022/10/11 08:28:47;;;;;;;14.13;2.80;;;10.10;99.90;;;;;;4993855;28;20022;-75
2022/10/11 08:31:14;;;;;;;11.95;2.10;;;10.10;99.90;;;;;;4994867;28;20085;-77
2022/10/11 08:33:40;;;;;;;8.10;2.50;;;10.20;99.90;;;;;;4992424;28;20061;-76
2022/10/11 08:36:07;;;;;;;13.27;3.42;;;10.20;99.90;;;;;;4994963;28;20050;-76
2022/10/11 08:38:35;;;;;;;14.25;3.50;;;10.20;99.90;;;;;;4993503;28;20101;-77
2022/10/11 08:41:01;;;;;;;12.95;2.80;;;10.30;99.90;;;;;;4994205;28;20356;-75
2022/10/11 08:43:58;;;;;;;14.82;2.75;;;10.30;99.90;;;;;;4987743;28;20109;-77
2022/10/11 08:46:29;;;;;;;12.18;2.92;;;10.40;99.90;;;;;;5002568;28;20458;-75
2022/10/11 08:48:56;;;;;;;8.93;2.33;;;10.40;99.90;;;;;;4993022;28;20030;-75
2022/10/11 08:51:42;;;;;;;14.10;2.65;;;10.40;99.90;;;;;;4991421;28;20125;-75
2022/10/11 08:54:38;;;;;;;15.38;2.72;;;10.50;99.90;;;;;;4994369;28;20034;-76
2022/10/11 08:57:06;;;;;;;10.00;1.95;;;10.50;99.90;;;;;;4983752;28;20034;-77
2022/10/11 08:59:51;;;;;;;15.35;3.22;;;10.60;99.90;;;;;;4995022;28;20031;-76
2022/10/11 09:02:54;;;;;;;8.52;2.83;;;10.60;99.90;;;;;;4984282;28;20537;-77
2022/10/11 09:05:23;;;;;;;19.20;3.25;;;10.70;99.90;;;;;;4966391;28;20057;-76
2022/10/11 09:08:07;;;;;;;10.07;2.35;;;10.70;99.90;;;;;;4988423;28;20364;-76
2022/10/11 09:10:58;;;;;;;11.63;2.33;;;10.80;99.90;;;;;;4991292;28;20040;-76
2022/10/11 09:13:42;;;;;;;12.55;2.50;;;10.80;99.90;;;;;;4983607;28;20018;-76
2022/10/11 09:16:52;;;;;;;14.73;2.30;;;10.90;99.90;;;;;;4998375;28;20371;-76
2022/10/11 09:19:39;;;;;;;10.50;2.50;;;10.90;99.90;;;;;;4990867;28;20023;-75
2022/10/11 09:22:41;;;;;;;8.75;1.85;;;11.00;99.90;;;;;;4983910;28;20130;-76
2022/10/11 09:25:31;;;;;;;14.23;2.40;;;11.10;99.90;;;;;;4995518;28;20045;-75
2022/10/11 09:28:30;;;;;;;11.45;2.38;;;11.20;99.90;;;;;;4991971;28;20037;-76
2022/10/11 09:30:57;;;;;;;12.07;2.20;;;11.40;99.90;;;;;;4988999;28;20491;-75
2022/10/11 09:33:40;;;;;;;18.45;3.25;;;11.60;99.90;;;;;;4997284;28;20429;-74
2022/10/11 09:36:21;;;;;;;13.98;2.63;;;11.80;99.90;;;;;;4994196;28;20018;-75
2022/10/11 09:38:58;;;;;;;10.70;2.10;;;12.10;99.90;;;;;;4994944;28;20022;-76
2022/10/11 09:44:06;;;;;;;9.90;2.13;;;12.60;99.90;;;;;;5000905;28;20399;-77
2022/10/11 09:46:40;;;;;;;14.27;2.33;;;13.00;99.90;;;;;;5002264;28;20130;-77
2022/10/11 09:49:15;;;;;;;13.55;2.42;;;13.40;99.90;;;;;;4998522;28;20033;-77
2022/10/11 09:51:46;;;;;;;13.35;2.30;;;13.90;99.90;;;;;;4997318;28;20023;-78
2022/10/11 09:54:11;;;;;;;9.48;2.75;;;14.50;99.90;;;;;;4963933;28;20156;-77
2022/10/11 09:56:44;;;;;;;10.70;2.60;;;15.10;99.90;;;;;;4979730;28;20033;-78
2022/10/11 09:59:26;;;;;;;;;;;15.80;99.90;;;;;;4979346;28;20026;-78
2022/10/11 10:02:14;;;;;;;9.65;2.10;;;16.20;99.90;;;;;;4975026;28;19906;-77
2022/10/11 10:05:07;;;;;;;10.25;2.50;;;17.20;99.90;;;;;;4993612;28;20056;-77
2022/10/11 10:07:35;;;;;;;6.97;2.20;;;17.50;99.90;;;;;;4983830;28;20118;-77
2022/10/11 10:10:30;;;;;;;15.85;2.85;;;18.10;99.90;;;;;;4974733;28;20039;-76
2022/10/11 10:12:58;;;;;;;15.63;2.20;;;18.40;99.60;;;;;;4977692;28;20561;-77
2022/10/11 10:15:29;;;;;;;13.55;2.88;;;18.10;99.90;;;;;;4975423;28;20173;-77
2022/10/11 10:17:56;;;;;;;;;;;17.40;99.90;;;;;;4975707;28;20029;-76
2022/10/11 10:20:30;;;;;;;9.88;2.92;;;16.80;99.90;;;;;;4995591;28;19928;-77
2022/10/11 10:23:05;;;;;;;12.52;2.90;;;16.50;99.90;;;;;;4978153;28;20094;-77
2022/10/11 10:25:36;;;;;;;16.30;3.45;;;16.30;99.90;;;;;;4953736;28;20065;-77
2022/10/11 10:28:16;;;;;;;9.40;2.43;;;15.70;99.90;;;;;;4969318;28;20181;-77
2022/10/11 10:30:53;;;;;;;12.90;3.35;;;15.20;99.90;;;;;;4976972;28;20027;-77
2022/10/11 10:33:20;;;;;;;8.55;2.28;;;15.20;99.90;;;;;;4975390;28;20026;-77
2022/10/11 10:35:54;;;;;;;10.07;2.35;;;15.00;99.90;;;;;;4974027;28;20023;-77
2022/10/11 10:38:28;;;;;;;12.38;2.60;;;15.30;99.90;;;;;;4991259;28;20510;-77
2022/10/11 10:41:01;;;;;;;6.07;1.60;;;15.90;99.90;;;;;;4979116;28;20030;-77
2022/10/11 10:43:32;;;;;;;8.05;1.73;;;16.80;99.90;;;;;;4979579;28;20465;-77
2022/10/11 10:46:11;;;;;;;10.55;2.30;;;17.30;99.90;;;;;;4976697;28;20038;-77
2022/10/11 10:49:02;;;;;;;13.00;2.95;;;17.00;99.90;;;;;;4958101;28;20525;-76
2022/10/11 10:51:39;;;;;;;13.80;3.28;;;16.70;99.90;;;;;;4967301;28;20042;-77
2022/10/11 10:54:19;;;;;;;10.27;1.85;;;16.20;99.90;;;;;;4997667;28;20088;-78
2022/10/11 10:56:54;;;;;;;12.50;3.17;;;16.10;99.90;;;;;;4980678;28;20448;-77
2022/10/11 10:59:55;;;;;;;9.48;2.58;;;15.70;99.90;;;;;;4978926;28;20030;-76
2022/10/11 11:02:43;;;;;;;11.52;2.35;;;15.60;99.90;;;;;;4976297;28;20022;-77
2022/10/11 11:05:30;;;;;;;15.32;3.10;;;15.40;99.90;;;;;;4973569;28;20054;-76
2022/10/11 11:08:08;;;;;;;10.02;2.92;;;14.80;99.90;;;;;;4972138;28;20026;-78
2022/10/11 11:10:52;;;;;;;10.63;2.45;;;14.40;99.90;;;;;;4971241;28;20094;-76
2022/10/11 11:13:44;;;;;;;17.25;3.58;;;14.30;99.90;;;;;;4973377;28;20058;-76
2022/10/11 11:16:30;;;;;;;15.43;4.00;;;14.20;99.90;;;;;;4968251;28;20038;-77
2022/10/11 11:19:20;;;;;;;15.88;2.67;;;14.10;99.90;;;;;;4972535;28;20115;-77
2022/10/11 11:22:11;;;;;;;16.27;2.85;;;14.10;99.90;;;;;;4983531;28;20023;-77
2022/10/11 11:25:06;;;;;;;14.95;3.08;;;14.20;99.90;;;;;;4970807;28;20037;-77
2022/10/11 11:28:11;;;;;;;10.60;2.15;;;14.30;99.90;;;;;;4973371;28;20086;-76
2022/10/11 11:30:56;;;;;;;14.70;3.28;;;14.40;99.90;;;;;;4984270;28;20030;-77
2022/10/11 11:33:24;;;;;;;15.23;2.53;;;14.30;99.90;;;;;;4984628;28;20069;-77
2022/10/11 11:35:53;;;;;;;11.45;2.30;;;14.10;99.90;;;;;;4974448;28;20395;-78
2022/10/11 11:38:43;;;;;;;8.45;1.98;;;14.00;99.90;;;;;;4955275;28;20384;-77
2022/10/11 11:41:19;;;;;;;17.67;2.97;;;14.10;99.90;;;;;;4971680;28;20059;-77
2022/10/11 11:43:52;;;;;;;9.13;2.10;;;14.10;99.90;;;;;;4987248;28;20038;-76
2022/10/11 11:46:26;;;;;;;15.32;2.78;;;14.10;99.90;;;;;;4985678;28;20038;-77
2022/10/11 11:48:54;;;;;;;11.15;2.17;;;14.20;99.90;;;;;;4975677;28;20041;-76
2022/10/11 11:51:31;;;;;;;10.32;2.50;;;14.30;99.90;;;;;;4971632;28;20030;-77
2022/10/11 11:54:07;;;;;;;14.73;2.33;;;14.40;99.90;;;;;;4974360;28;20027;-75
2022/10/11 11:56:53;;;;;;;9.30;1.95;;;14.40;99.90;;;;;;4980503;28;20018;-77
2022/10/11 11:59:21;;;;;;;12.95;2.97;;;14.60;99.90;;;;;;4958123;28;20430;-77
2022/10/11 12:02:10;;;;;;;17.38;2.35;;;14.50;99.90;;;;;;4960605;28;20427;-77
2022/10/11 12:04:40;;;;;;;16.77;2.03;;;14.30;99.90;;;;;;4986169;28;20054;-76
2022/10/11 12:07:12;;;;;;;10.07;2.17;;;14.10;99.90;;;;;;4983540;28;20038;-77
2022/10/11 12:09:40;;;;;;;15.77;2.10;;;14.10;99.90;;;;;;4969402;28;20030;-78
2022/10/11 12:12:24;;;;;;;12.07;2.53;;;14.20;99.90;;;;;;4981796;28;20302;-77
2022/10/11 12:15:00;;;;;;;13.77;2.47;;;14.00;99.90;;;;;;4973412;28;20162;-77
2022/10/11 12:17:27;;;;;;;17.75;2.25;;;13.90;99.90;;;;;;4957069;28;20030;-77
2022/10/11 12:20:07;;;;;;;11.25;2.25;;;13.80;99.90;;;;;;4984341;28;20446;-77
2022/10/11 12:22:33;;;;;;;17.00;2.97;;;13.90;99.90;;;;;;4988689;28;20023;-77
2022/10/11 12:25:08;;;;;;;17.52;2.47;;;13.90;99.90;;;;;;4988442;28;20487;-78
2022/10/11 12:27:38;;;;;;;19.85;2.95;;;14.00;99.90;;;;;;4986704;28;20033;-76
2022/10/11 12:30:23;;;;;;;12.80;2.30;;;14.00;99.90;;;;;;4978568;28;20455;-76
2022/10/11 12:33:12;;;;;;;13.23;2.72;;;14.10;99.90;;;;;;4973708;28;20031;-77
2022/10/11 12:35:46;;;;;;;12.15;2.25;;;14.20;99.90;;;;;;4983438;28;20081;-78
2022/10/11 12:38:21;;;;;;;14.02;2.67;;;14.10;99.90;;;;;;4978257;28;20186;-76
2022/10/11 12:40:51;;;;;;;11.85;2.10;;;14.20;99.90;;;;;;4975207;28;20046;-78
2022/10/11 12:43:16;;;;;;;8.73;2.25;;;14.20;99.90;;;;;;4982607;28;20030;-77
2022/10/11 12:45:46;;;;;;;11.35;2.72;;;14.30;99.90;;;;;;4979908;28;20027;-77
2022/10/11 12:48:35;;;;;;;8.15;2.10;;;14.30;99.90;;;;;;4977416;28;20097;-78
2022/10/11 12:51:16;;;;;;;9.80;2.17;;;14.40;99.90;;;;;;4976850;28;20429;-78
2022/10/11 12:54:27;;;;;;;14.40;2.30;;;14.40;99.90;;;;;;4957988;28;20026;-76
2022/10/11 12:57:08;;;;;;;6.43;1.73;;;14.30;99.90;;;;;;4976592;28;20030;-76
2022/10/11 12:59:37;;;;;;;9.07;2.10;;;14.10;99.90;;;;;;4983453;28;20031;-77
2022/10/11 13:02:29;;;;;;;12.90;2.60;;;14.00;99.90;;;;;;4961282;28;20513;-77
2022/10/11 13:05:20;;;;;;;7.57;2.05;;;13.80;99.90;;;;;;4970515;28;20546;-76
2022/10/11 13:07:46;;;;;;;14.17;2.50;;;13.80;99.90;;;;;;4974789;28;20035;-79
2022/10/11 13:10:18;;;;;;;11.07;2.17;;;13.80;99.90;;;;;;4958112;28;20041;-77
2022/10/11 13:12:46;;;;;;;10.20;1.75;;;13.70;99.90;;;;;;4975894;28;20483;-77